sensor_id;sensor_type;location;lat;lon;timestamp;temperature;humidity
59973;DHT22;55298;-36.624;-64.282;2024-03-23T00:53:47;19.20;67.80
59973;DHT22;55298;-36.624;-64.282;2024-03-23T00:56:17;19.20;67.90
59973;DHT22;55298;-36.624;-64.282;2024-03-23T00:58:46;19.10;67.90
59973;DHT22;55298;-36.624;-64.282;2024-03-23T01:01:14;19.10;68.00
59973;DHT22;55298;-36.624;-64.282;2024-03-23T01:03:44;19.10;68.20
59973;DHT22;55298;-36.624;-64.282;2024-03-23T01:06:11;19.00;68.20
59973;DHT22;55298;-36.624;-64.282;2024-03-23T01:08:39;19.00;68.50
59973;DHT22;55298;-36.624;-64.282;2024-03-23T01:11:07;19.00;68.50
59973;DHT22;55298;-36.624;-64.282;2024-03-23T01:13:36;19.00;68.60
59973;DHT22;55298;-36.624;-64.282;2024-03-23T01:16:04;19.00;68.90
59973;DHT22;55298;-36.624;-64.282;2024-03-23T01:18:32;18.90;69.10
59973;DHT22;55298;-36.624;-64.282;2024-03-23T01:21:00;18.90;69.40
59973;DHT22;55298;-36.624;-64.282;2024-03-23T01:23:27;18.90;69.90
59973;DHT22;55298;-36.624;-64.282;2024-03-23T01:25:55;18.80;70.20
59973;DHT22;55298;-36.624;-64.282;2024-03-23T01:28:23;18.80;70.50
59973;DHT22;55298;-36.624;-64.282;2024-03-23T01:30:57;18.80;70.90
59973;DHT22;55298;-36.624;-64.282;2024-03-23T01:33:25;18.70;71.10
59973;DHT22;55298;-36.624;-64.282;2024-03-23T01:35:54;18.70;71.40
59973;DHT22;55298;-36.624;-64.282;2024-03-23T01:38:22;18.70;71.50
59973;DHT22;55298;-36.624;-64.282;2024-03-23T01:40:58;18.70;72.00
59973;DHT22;55298;-36.624;-64.282;2024-03-23T01:43:26;18.70;72.50
59973;DHT22;55298;-36.624;-64.282;2024-03-23T01:45:55;18.70;72.40
59973;DHT22;55298;-36.624;-64.282;2024-03-23T01:48:25;18.60;72.60
59973;DHT22;55298;-36.624;-64.282;2024-03-23T01:50:52;18.60;73.00
59973;DHT22;55298;-36.624;-64.282;2024-03-23T01:53:21;18.50;73.20
59973;DHT22;55298;-36.624;-64.282;2024-03-23T01:55:52;18.60;73.40
59973;DHT22;55298;-36.624;-64.282;2024-03-23T01:58:20;18.50;73.70
59973;DHT22;55298;-36.624;-64.282;2024-03-23T02:00:48;18.50;73.90
59973;DHT22;55298;-36.624;-64.282;2024-03-23T02:03:26;18.40;74.00
59973;DHT22;55298;-36.624;-64.282;2024-03-23T02:05:55;18.40;74.30
59973;DHT22;55298;-36.624;-64.282;2024-03-23T02:08:24;18.40;74.50
59973;DHT22;55298;-36.624;-64.282;2024-03-23T02:10:52;18.30;75.00
59973;DHT22;55298;-36.624;-64.282;2024-03-23T02:13:20;18.30;75.10
59973;DHT22;55298;-36.624;-64.282;2024-03-23T02:15:48;18.30;75.50
59973;DHT22;55298;-36.624;-64.282;2024-03-23T02:18:16;18.20;75.70
59973;DHT22;55298;-36.624;-64.282;2024-03-23T02:20:44;18.20;76.10
59973;DHT22;55298;-36.624;-64.282;2024-03-23T02:23:15;18.20;76.30
59973;DHT22;55298;-36.624;-64.282;2024-03-23T02:25:45;18.10;76.60
59973;DHT22;55298;-36.624;-64.282;2024-03-23T02:28:12;18.10;77.00
59973;DHT22;55298;-36.624;-64.282;2024-03-23T02:30:40;18.10;77.90
59973;DHT22;55298;-36.624;-64.282;2024-03-23T02:33:08;18.10;77.50
59973;DHT22;55298;-36.624;-64.282;2024-03-23T02:35:36;18.00;77.90
59973;DHT22;55298;-36.624;-64.282;2024-03-23T02:38:04;18.00;78.00
59973;DHT22;55298;-36.624;-64.282;2024-03-23T02:40:31;18.00;78.30
59973;DHT22;55298;-36.624;-64.282;2024-03-23T02:42:59;18.00;79.00
59973;DHT22;55298;-36.624;-64.282;2024-03-23T02:45:27;18.00;78.40
59973;DHT22;55298;-36.624;-64.282;2024-03-23T02:47:54;18.00;78.40
59973;DHT22;55298;-36.624;-64.282;2024-03-23T02:50:22;18.00;78.50
59973;DHT22;55298;-36.624;-64.282;2024-03-23T02:52:51;18.00;78.60
59973;DHT22;55298;-36.624;-64.282;2024-03-23T02:55:19;18.00;78.60
59973;DHT22;55298;-36.624;-64.282;2024-03-23T02:57:47;18.00;78.90
59973;DHT22;55298;-36.624;-64.282;2024-03-23T03:00:14;18.00;79.50
59973;DHT22;55298;-36.624;-64.282;2024-03-23T03:02:43;18.00;79.70
59973;DHT22;55298;-36.624;-64.282;2024-03-23T03:05:10;18.00;79.90
59973;DHT22;55298;-36.624;-64.282;2024-03-23T03:07:39;18.00;80.20
59973;DHT22;55298;-36.624;-64.282;2024-03-23T03:10:07;17.90;80.40
59973;DHT22;55298;-36.624;-64.282;2024-03-23T03:12:39;17.90;80.60
59973;DHT22;55298;-36.624;-64.282;2024-03-23T03:15:09;17.90;80.90
59973;DHT22;55298;-36.624;-64.282;2024-03-23T03:17:37;17.90;81.10
59973;DHT22;55298;-36.624;-64.282;2024-03-23T03:20:06;17.90;81.20
59973;DHT22;55298;-36.624;-64.282;2024-03-23T03:23:03;17.80;81.80
59973;DHT22;55298;-36.624;-64.282;2024-03-23T03:26:04;17.80;82.10
59973;DHT22;55298;-36.624;-64.282;2024-03-23T03:29:01;17.80;82.80
59973;DHT22;55298;-36.624;-64.282;2024-03-23T03:32:03;17.70;82.90
59973;DHT22;55298;-36.624;-64.282;2024-03-23T03:34:54;17.70;83.20
59973;DHT22;55298;-36.624;-64.282;2024-03-23T03:37:31;17.70;83.30
59973;DHT22;55298;-36.624;-64.282;2024-03-23T03:39:59;17.80;83.60
59973;DHT22;55298;-36.624;-64.282;2024-03-23T03:42:28;17.70;83.90
59973;DHT22;55298;-36.624;-64.282;2024-03-23T03:44:59;17.70;84.10
59973;DHT22;55298;-36.624;-64.282;2024-03-23T03:47:28;17.70;84.40
59973;DHT22;55298;-36.624;-64.282;2024-03-23T03:49:57;17.70;84.20
59973;DHT22;55298;-36.624;-64.282;2024-03-23T03:52:25;17.70;84.70
59973;DHT22;55298;-36.624;-64.282;2024-03-23T03:55:01;17.70;84.50
59973;DHT22;55298;-36.624;-64.282;2024-03-23T03:57:32;17.70;84.40
59973;DHT22;55298;-36.624;-64.282;2024-03-23T04:00:08;17.70;84.70
59973;DHT22;55298;-36.624;-64.282;2024-03-23T04:02:57;17.60;85.00
59973;DHT22;55298;-36.624;-64.282;2024-03-23T04:06:21;17.60;85.50
59973;DHT22;55298;-36.624;-64.282;2024-03-23T04:09:24;17.60;85.20
59973;DHT22;55298;-36.624;-64.282;2024-03-23T04:11:53;17.60;86.00
59973;DHT22;55298;-36.624;-64.282;2024-03-23T04:14:22;17.60;86.30
59973;DHT22;55298;-36.624;-64.282;2024-03-23T04:16:50;17.60;86.30
59973;DHT22;55298;-36.624;-64.282;2024-03-23T04:19:37;17.60;86.40
59973;DHT22;55298;-36.624;-64.282;2024-03-23T04:22:25;17.50;86.80
59973;DHT22;55298;-36.624;-64.282;2024-03-23T04:25:00;17.50;87.60
59973;DHT22;55298;-36.624;-64.282;2024-03-23T04:27:43;17.40;87.60
59973;DHT22;55298;-36.624;-64.282;2024-03-23T04:30:36;17.40;87.90
59973;DHT22;55298;-36.624;-64.282;2024-03-23T04:33:52;17.40;88.30
59973;DHT22;55298;-36.624;-64.282;2024-03-23T04:36:34;17.30;88.90
59973;DHT22;55298;-36.624;-64.282;2024-03-23T04:39:05;17.30;89.30
59973;DHT22;55298;-36.624;-64.282;2024-03-23T04:42:30;17.30;89.50
59973;DHT22;55298;-36.624;-64.282;2024-03-23T04:45:08;17.30;90.00
59973;DHT22;55298;-36.624;-64.282;2024-03-23T04:48:09;17.30;90.20
59973;DHT22;55298;-36.624;-64.282;2024-03-23T04:50:43;17.20;90.40
59973;DHT22;55298;-36.624;-64.282;2024-03-23T04:53:13;17.10;90.80
59973;DHT22;55298;-36.624;-64.282;2024-03-23T04:58:17;17.00;91.30
59973;DHT22;55298;-36.624;-64.282;2024-03-23T05:00:58;17.00;91.40
59973;DHT22;55298;-36.624;-64.282;2024-03-23T05:03:38;17.00;91.50
59973;DHT22;55298;-36.624;-64.282;2024-03-23T05:07:28;17.00;91.50
59973;DHT22;55298;-36.624;-64.282;2024-03-23T05:30:58;16.80;93.70
59973;DHT22;55298;-36.624;-64.282;2024-03-23T05:33:26;16.80;94.10
59973;DHT22;55298;-36.624;-64.282;2024-03-23T05:36:00;16.70;94.20
59973;DHT22;55298;-36.624;-64.282;2024-03-23T05:38:29;16.70;94.40
59973;DHT22;55298;-36.624;-64.282;2024-03-23T05:40:59;15.00;94.30
59973;DHT22;55298;-36.624;-64.282;2024-03-23T05:43:27;16.50;95.00
59973;DHT22;55298;-36.624;-64.282;2024-03-23T05:48:33;16.50;95.50
59973;DHT22;55298;-36.624;-64.282;2024-03-23T05:51:01;16.50;95.80
59973;DHT22;55298;-36.624;-64.282;2024-03-23T05:53:29;16.40;95.80
59973;DHT22;55298;-36.624;-64.282;2024-03-23T05:56:04;17.70;96.80
59973;DHT22;55298;-36.624;-64.282;2024-03-23T05:58:33;16.40;96.70
59973;DHT22;55298;-36.624;-64.282;2024-03-23T06:05:58;16.30;97.40
59973;DHT22;55298;-36.624;-64.282;2024-03-23T06:08:27;16.20;97.40
59973;DHT22;55298;-36.624;-64.282;2024-03-23T06:10:55;16.20;97.90
59973;DHT22;55298;-36.624;-64.282;2024-03-23T06:13:23;16.20;98.20
59973;DHT22;55298;-36.624;-64.282;2024-03-23T06:15:56;17.00;98.80
59973;DHT22;55298;-36.624;-64.282;2024-03-23T06:18:25;16.20;98.40
59973;DHT22;55298;-36.624;-64.282;2024-03-23T06:20:54;16.90;98.90
59973;DHT22;55298;-36.624;-64.282;2024-03-23T06:23:22;16.20;98.80
59973;DHT22;55298;-36.624;-64.282;2024-03-23T06:25:50;16.10;98.90
59973;DHT22;55298;-36.624;-64.282;2024-03-23T06:28:19;16.10;99.20
59973;DHT22;55298;-36.624;-64.282;2024-03-23T06:30:48;16.10;99.50
59973;DHT22;55298;-36.624;-64.282;2024-03-23T06:33:16;15.80;99.60
59973;DHT22;55298;-36.624;-64.282;2024-03-23T06:35:51;16.10;99.90
59973;DHT22;55298;-36.624;-64.282;2024-03-23T06:38:19;16.10;99.90
59973;DHT22;55298;-36.624;-64.282;2024-03-23T06:40:46;16.10;99.90
59973;DHT22;55298;-36.624;-64.282;2024-03-23T06:43:17;15.50;99.90
59973;DHT22;55298;-36.624;-64.282;2024-03-23T06:45:51;16.00;99.90
59973;DHT22;55298;-36.624;-64.282;2024-03-23T06:48:19;16.80;99.90
59973;DHT22;55298;-36.624;-64.282;2024-03-23T06:50:47;15.90;99.90
59973;DHT22;55298;-36.624;-64.282;2024-03-23T06:53:15;15.90;99.90
59973;DHT22;55298;-36.624;-64.282;2024-03-23T06:55:52;15.80;99.90
59973;DHT22;55298;-36.624;-64.282;2024-03-23T06:58:21;15.80;99.90
59973;DHT22;55298;-36.624;-64.282;2024-03-23T07:00:49;15.70;99.90
59973;DHT22;55298;-36.624;-64.282;2024-03-23T07:03:17;15.70;99.90
59973;DHT22;55298;-36.624;-64.282;2024-03-23T07:05:45;15.60;99.90
59973;DHT22;55298;-36.624;-64.282;2024-03-23T07:08:13;15.60;99.90
59973;DHT22;55298;-36.624;-64.282;2024-03-23T07:10:45;15.60;99.90
59973;DHT22;55298;-36.624;-64.282;2024-03-23T07:13:15;15.50;99.90
59973;DHT22;55298;-36.624;-64.282;2024-03-23T07:15:43;15.60;99.90
59973;DHT22;55298;-36.624;-64.282;2024-03-23T07:18:18;15.50;99.90
59973;DHT22;55298;-36.624;-64.282;2024-03-23T07:20:54;16.50;99.90
59973;DHT22;55298;-36.624;-64.282;2024-03-23T07:23:24;15.40;99.90
59973;DHT22;55298;-36.624;-64.282;2024-03-23T07:26:01;15.50;99.90
59973;DHT22;55298;-36.624;-64.282;2024-03-23T07:28:30;15.50;99.90
59973;DHT22;55298;-36.624;-64.282;2024-03-23T07:31:04;15.50;99.90
59973;DHT22;55298;-36.624;-64.282;2024-03-23T07:33:32;15.50;99.90
59973;DHT22;55298;-36.624;-64.282;2024-03-23T07:36:01;15.50;99.90
59973;DHT22;55298;-36.624;-64.282;2024-03-23T07:38:30;15.50;99.90
59973;DHT22;55298;-36.624;-64.282;2024-03-23T07:41:06;15.50;99.90
59973;DHT22;55298;-36.624;-64.282;2024-03-23T07:43:34;15.50;99.90
59973;DHT22;55298;-36.624;-64.282;2024-03-23T07:48:31;15.60;99.90
59973;DHT22;55298;-36.624;-64.282;2024-03-23T07:51:00;15.50;99.90
59973;DHT22;55298;-36.624;-64.282;2024-03-23T07:53:29;15.60;99.90
59973;DHT22;55298;-36.624;-64.282;2024-03-23T07:55:58;15.60;99.90
59973;DHT22;55298;-36.624;-64.282;2024-03-23T07:58:27;15.60;99.90
59973;DHT22;55298;-36.624;-64.282;2024-03-23T08:00:55;15.60;99.90
59973;DHT22;55298;-36.624;-64.282;2024-03-23T08:03:23;15.60;99.90
59973;DHT22;55298;-36.624;-64.282;2024-03-23T08:05:51;15.60;99.90
59973;DHT22;55298;-36.624;-64.282;2024-03-23T08:08:19;15.60;99.90
59973;DHT22;55298;-36.624;-64.282;2024-03-23T08:10:51;15.60;99.90
59973;DHT22;55298;-36.624;-64.282;2024-03-23T08:13:19;15.60;99.90
59973;DHT22;55298;-36.624;-64.282;2024-03-23T08:15:47;15.60;99.90
59973;DHT22;55298;-36.624;-64.282;2024-03-23T08:18:15;15.50;99.90
59973;DHT22;55298;-36.624;-64.282;2024-03-23T08:20:42;15.50;99.90
59973;DHT22;55298;-36.624;-64.282;2024-03-23T08:23:10;15.50;99.90
59973;DHT22;55298;-36.624;-64.282;2024-03-23T08:25:37;15.50;99.90
59973;DHT22;55298;-36.624;-64.282;2024-03-23T08:28:05;15.50;99.90
59973;DHT22;55298;-36.624;-64.282;2024-03-23T08:30:35;15.40;99.90
59973;DHT22;55298;-36.624;-64.282;2024-03-23T08:33:03;15.40;99.90
59973;DHT22;55298;-36.624;-64.282;2024-03-23T08:35:31;15.30;99.90
59973;DHT22;55298;-36.624;-64.282;2024-03-23T08:37:59;15.40;99.90
59973;DHT22;55298;-36.624;-64.282;2024-03-23T08:40:26;15.30;99.90
59973;DHT22;55298;-36.624;-64.282;2024-03-23T08:42:54;15.20;99.90
59973;DHT22;55298;-36.624;-64.282;2024-03-23T08:45:22;15.30;99.90
59973;DHT22;55298;-36.624;-64.282;2024-03-23T08:47:49;15.20;99.90
59973;DHT22;55298;-36.624;-64.282;2024-03-23T08:50:17;15.20;99.90
59973;DHT22;55298;-36.624;-64.282;2024-03-23T08:52:45;15.20;99.90
59973;DHT22;55298;-36.624;-64.282;2024-03-23T08:55:12;15.20;99.90
59973;DHT22;55298;-36.624;-64.282;2024-03-23T08:57:40;15.10;99.90
59973;DHT22;55298;-36.624;-64.282;2024-03-23T09:00:08;15.10;99.90
59973;DHT22;55298;-36.624;-64.282;2024-03-23T09:02:38;15.10;99.90
59973;DHT22;55298;-36.624;-64.282;2024-03-23T09:05:06;15.10;99.90
59973;DHT22;55298;-36.624;-64.282;2024-03-23T09:07:33;15.00;99.90
59973;DHT22;55298;-36.624;-64.282;2024-03-23T09:10:01;15.10;99.90
59973;DHT22;55298;-36.624;-64.282;2024-03-23T09:12:29;15.10;99.90
59973;DHT22;55298;-36.624;-64.282;2024-03-23T09:14:56;15.10;99.90
59973;DHT22;55298;-36.624;-64.282;2024-03-23T09:17:24;15.10;99.90
59973;DHT22;55298;-36.624;-64.282;2024-03-23T09:19:51;15.20;99.90
59973;DHT22;55298;-36.624;-64.282;2024-03-23T09:22:19;15.20;99.90
59973;DHT22;55298;-36.624;-64.282;2024-03-23T09:24:47;15.20;99.90
59973;DHT22;55298;-36.624;-64.282;2024-03-23T09:27:14;15.20;99.90
59973;DHT22;55298;-36.624;-64.282;2024-03-23T09:29:42;15.20;99.90
59973;DHT22;55298;-36.624;-64.282;2024-03-23T09:32:09;15.20;99.90
59973;DHT22;55298;-36.624;-64.282;2024-03-23T09:34:37;15.20;99.90
59973;DHT22;55298;-36.624;-64.282;2024-03-23T09:37:05;15.20;99.90
59973;DHT22;55298;-36.624;-64.282;2024-03-23T09:39:32;15.10;99.90
59973;DHT22;55298;-36.624;-64.282;2024-03-23T09:42:00;15.20;99.90
59973;DHT22;55298;-36.624;-64.282;2024-03-23T09:44:27;15.20;99.90
59973;DHT22;55298;-36.624;-64.282;2024-03-23T09:46:56;15.20;99.90
59973;DHT22;55298;-36.624;-64.282;2024-03-23T09:49:24;15.20;99.90
59973;DHT22;55298;-36.624;-64.282;2024-03-23T09:51:52;15.20;99.90
59973;DHT22;55298;-36.624;-64.282;2024-03-23T09:54:21;15.20;99.90
59973;DHT22;55298;-36.624;-64.282;2024-03-23T09:56:49;15.20;99.90
59973;DHT22;55298;-36.624;-64.282;2024-03-23T09:59:17;15.20;99.90
59973;DHT22;55298;-36.624;-64.282;2024-03-23T10:01:44;15.20;99.90
59973;DHT22;55298;-36.624;-64.282;2024-03-23T10:04:35;15.20;99.90
59973;DHT22;55298;-36.624;-64.282;2024-03-23T10:07:18;15.10;99.90
59973;DHT22;55298;-36.624;-64.282;2024-03-23T10:09:47;15.20;99.90
59973;DHT22;55298;-36.624;-64.282;2024-03-23T10:12:18;15.20;99.90
59973;DHT22;55298;-36.624;-64.282;2024-03-23T10:14:45;15.20;99.90
59973;DHT22;55298;-36.624;-64.282;2024-03-23T10:17:18;15.20;99.90
59973;DHT22;55298;-36.624;-64.282;2024-03-23T10:19:48;15.20;99.90
59973;DHT22;55298;-36.624;-64.282;2024-03-23T10:22:22;15.20;99.90
59973;DHT22;55298;-36.624;-64.282;2024-03-23T10:24:51;15.20;99.90
59973;DHT22;55298;-36.624;-64.282;2024-03-23T10:27:20;15.10;99.90
59973;DHT22;55298;-36.624;-64.282;2024-03-23T10:29:49;15.10;99.90
59973;DHT22;55298;-36.624;-64.282;2024-03-23T10:32:17;15.10;99.90
59973;DHT22;55298;-36.624;-64.282;2024-03-23T10:34:46;15.10;99.90
59973;DHT22;55298;-36.624;-64.282;2024-03-23T10:37:14;15.10;99.90
59973;DHT22;55298;-36.624;-64.282;2024-03-23T10:39:44;15.20;99.90
59973;DHT22;55298;-36.624;-64.282;2024-03-23T10:42:13;15.20;99.90
59973;DHT22;55298;-36.624;-64.282;2024-03-23T10:44:45;15.20;99.90
59973;DHT22;55298;-36.624;-64.282;2024-03-23T10:47:12;15.20;99.90
59973;DHT22;55298;-36.624;-64.282;2024-03-23T10:49:40;15.20;99.90
59973;DHT22;55298;-36.624;-64.282;2024-03-23T10:52:08;15.30;99.90
59973;DHT22;55298;-36.624;-64.282;2024-03-23T10:54:39;15.40;99.90
59973;DHT22;55298;-36.624;-64.282;2024-03-23T10:57:14;15.40;99.90
59973;DHT22;55298;-36.624;-64.282;2024-03-23T10:59:44;15.40;99.90
59973;DHT22;55298;-36.624;-64.282;2024-03-23T11:02:21;15.50;99.90
59973;DHT22;55298;-36.624;-64.282;2024-03-23T11:04:49;15.60;99.90
59973;DHT22;55298;-36.624;-64.282;2024-03-23T11:07:32;15.70;99.90
59973;DHT22;55298;-36.624;-64.282;2024-03-23T11:10:01;16.00;99.90
59973;DHT22;55298;-36.624;-64.282;2024-03-23T11:12:32;16.20;99.90
59973;DHT22;55298;-36.624;-64.282;2024-03-23T11:15:04;16.30;99.90
59973;DHT22;55298;-36.624;-64.282;2024-03-23T11:17:33;16.30;99.90
59973;DHT22;55298;-36.624;-64.282;2024-03-23T11:20:03;16.20;99.90
59973;DHT22;55298;-36.624;-64.282;2024-03-23T11:22:41;16.20;99.90
59973;DHT22;55298;-36.624;-64.282;2024-03-23T11:25:19;16.20;99.90
59973;DHT22;55298;-36.624;-64.282;2024-03-23T11:27:50;16.20;99.90
59973;DHT22;55298;-36.624;-64.282;2024-03-23T11:30:20;16.20;99.90
59973;DHT22;55298;-36.624;-64.282;2024-03-23T11:32:51;16.30;99.90
59973;DHT22;55298;-36.624;-64.282;2024-03-23T11:35:31;16.40;99.90
59973;DHT22;55298;-36.624;-64.282;2024-03-23T11:38:04;16.50;99.90
59973;DHT22;55298;-36.624;-64.282;2024-03-23T11:40:32;16.50;99.90
59973;DHT22;55298;-36.624;-64.282;2024-03-23T11:43:01;16.60;99.90
59973;DHT22;55298;-36.624;-64.282;2024-03-23T11:45:34;16.80;99.90
59973;DHT22;55298;-36.624;-64.282;2024-03-23T11:48:07;16.90;99.90
59973;DHT22;55298;-36.624;-64.282;2024-03-23T11:50:38;17.00;99.90
59973;DHT22;55298;-36.624;-64.282;2024-03-23T11:58:22;17.40;99.90
59973;DHT22;55298;-36.624;-64.282;2024-03-23T12:00:52;17.70;99.90
59973;DHT22;55298;-36.624;-64.282;2024-03-23T12:03:24;17.90;99.90
59973;DHT22;55298;-36.624;-64.282;2024-03-23T12:05:58;18.00;99.90
59973;DHT22;55298;-36.624;-64.282;2024-03-23T12:08:33;18.20;99.90
59973;DHT22;55298;-36.624;-64.282;2024-03-23T12:11:11;18.40;99.90
59973;DHT22;55298;-36.624;-64.282;2024-03-23T12:13:42;18.80;99.90
59973;DHT22;55298;-36.624;-64.282;2024-03-23T12:16:16;19.00;99.70
59973;DHT22;55298;-36.624;-64.282;2024-03-23T12:18:47;19.10;98.90
59973;DHT22;55298;-36.624;-64.282;2024-03-23T12:21:16;19.10;98.60
59973;DHT22;55298;-36.624;-64.282;2024-03-23T12:23:44;18.90;98.40
59973;DHT22;55298;-36.624;-64.282;2024-03-23T12:26:13;19.00;98.30
59973;DHT22;55298;-36.624;-64.282;2024-03-23T12:28:42;19.30;97.30
59973;DHT22;55298;-36.624;-64.282;2024-03-23T12:31:11;19.50;97.20
59973;DHT22;55298;-36.624;-64.282;2024-03-23T12:33:39;19.40;96.60
59973;DHT22;55298;-36.624;-64.282;2024-03-23T12:36:07;19.50;96.00
59973;DHT22;55298;-36.624;-64.282;2024-03-23T12:38:38;19.70;95.60
59973;DHT22;55298;-36.624;-64.282;2024-03-23T12:41:05;19.80;95.10
59973;DHT22;55298;-36.624;-64.282;2024-03-23T12:43:33;19.80;94.90
59973;DHT22;55298;-36.624;-64.282;2024-03-23T12:46:02;19.70;94.60
59973;DHT22;55298;-36.624;-64.282;2024-03-23T12:48:30;19.60;95.00
59973;DHT22;55298;-36.624;-64.282;2024-03-23T12:50:58;19.50;95.10
59973;DHT22;55298;-36.624;-64.282;2024-03-23T12:53:27;19.60;95.10
59973;DHT22;55298;-36.624;-64.282;2024-03-23T12:55:56;19.80;94.90
59973;DHT22;55298;-36.624;-64.282;2024-03-23T12:58:24;20.10;93.90
59973;DHT22;55298;-36.624;-64.282;2024-03-23T13:00:52;20.20;93.10
59973;DHT22;55298;-36.624;-64.282;2024-03-23T13:03:19;20.30;92.70
59973;DHT22;55298;-36.624;-64.282;2024-03-23T13:05:54;20.50;91.80
59973;DHT22;55298;-36.624;-64.282;2024-03-23T13:08:22;20.60;91.60
59973;DHT22;55298;-36.624;-64.282;2024-03-23T13:10:53;21.20;90.40
59973;DHT22;55298;-36.624;-64.282;2024-03-23T13:13:22;21.80;89.10
59973;DHT22;55298;-36.624;-64.282;2024-03-23T13:15:51;21.80;85.50
59973;DHT22;55298;-36.624;-64.282;2024-03-23T13:18:18;22.30;84.00
59973;DHT22;55298;-36.624;-64.282;2024-03-23T13:20:46;23.20;80.70
59973;DHT22;55298;-36.624;-64.282;2024-03-23T13:23:14;23.90;73.80
59973;DHT22;55298;-36.624;-64.282;2024-03-23T13:25:48;24.20;70.00
59973;DHT22;55298;-36.624;-64.282;2024-03-23T13:28:20;24.80;68.30
59973;DHT22;55298;-36.624;-64.282;2024-03-23T13:30:56;25.70;65.50
59973;DHT22;55298;-36.624;-64.282;2024-03-23T13:33:26;25.70;59.50
59973;DHT22;55298;-36.624;-64.282;2024-03-23T13:35:54;25.60;61.20
59973;DHT22;55298;-36.624;-64.282;2024-03-23T13:38:25;25.60;60.10
59973;DHT22;55298;-36.624;-64.282;2024-03-23T13:40:56;25.80;58.90
59973;DHT22;55298;-36.624;-64.282;2024-03-23T13:43:25;25.80;58.20
59973;DHT22;55298;-36.624;-64.282;2024-03-23T13:45:58;26.00;59.30
59973;DHT22;55298;-36.624;-64.282;2024-03-23T13:48:27;25.70;56.70
59973;DHT22;55298;-36.624;-64.282;2024-03-23T13:51:04;25.30;57.30
59973;DHT22;55298;-36.624;-64.282;2024-03-23T13:53:32;25.00;58.20
59973;DHT22;55298;-36.624;-64.282;2024-03-23T13:56:00;24.80;58.80
59973;DHT22;55298;-36.624;-64.282;2024-03-23T13:58:29;24.50;59.20
59973;DHT22;55298;-36.624;-64.282;2024-03-23T14:00:58;24.30;60.80
59973;DHT22;55298;-36.624;-64.282;2024-03-23T14:03:26;23.90;61.20
59973;DHT22;55298;-36.624;-64.282;2024-03-23T14:05:58;23.60;62.60
59973;DHT22;55298;-36.624;-64.282;2024-03-23T14:08:34;23.40;63.30
59973;DHT22;55298;-36.624;-64.282;2024-03-23T14:11:07;23.60;64.40
59973;DHT22;55298;-36.624;-64.282;2024-03-23T14:13:37;23.70;64.20
59973;DHT22;55298;-36.624;-64.282;2024-03-23T14:16:08;23.80;62.40
59973;DHT22;55298;-36.624;-64.282;2024-03-23T14:18:36;23.50;61.70
59973;DHT22;55298;-36.624;-64.282;2024-03-23T14:21:07;23.40;63.20
59973;DHT22;55298;-36.624;-64.282;2024-03-23T14:23:34;23.70;63.50
59973;DHT22;55298;-36.624;-64.282;2024-03-23T14:26:02;24.00;62.00
59973;DHT22;55298;-36.624;-64.282;2024-03-23T14:28:30;24.60;60.70
59973;DHT22;55298;-36.624;-64.282;2024-03-23T14:30:58;25.60;58.30
59973;DHT22;55298;-36.624;-64.282;2024-03-23T14:33:26;26.00;56.10
59973;DHT22;55298;-36.624;-64.282;2024-03-23T14:35:54;26.00;54.60
59973;DHT22;55298;-36.624;-64.282;2024-03-23T14:38:25;26.40;54.20
59973;DHT22;55298;-36.624;-64.282;2024-03-23T14:40:57;26.40;53.50
59973;DHT22;55298;-36.624;-64.282;2024-03-23T14:43:25;26.30;52.90
59973;DHT22;55298;-36.624;-64.282;2024-03-23T14:46:09;26.20;53.30
59973;DHT22;55298;-36.624;-64.282;2024-03-23T14:48:38;26.00;53.60
59973;DHT22;55298;-36.624;-64.282;2024-03-23T14:51:07;25.70;54.40
59973;DHT22;55298;-36.624;-64.282;2024-03-23T14:53:39;25.40;56.20
59973;DHT22;55298;-36.624;-64.282;2024-03-23T14:56:08;25.40;55.90
59973;DHT22;55298;-36.624;-64.282;2024-03-23T14:58:40;25.60;55.90
59973;DHT22;55298;-36.624;-64.282;2024-03-23T15:01:09;25.50;54.70
59973;DHT22;55298;-36.624;-64.282;2024-03-23T15:03:38;25.40;55.80
59973;DHT22;55298;-36.624;-64.282;2024-03-23T15:06:06;25.40;56.30
59973;DHT22;55298;-36.624;-64.282;2024-03-23T15:08:36;25.50;55.60
59973;DHT22;55298;-36.624;-64.282;2024-03-23T15:11:05;25.80;55.00
59973;DHT22;55298;-36.624;-64.282;2024-03-23T15:13:40;26.60;54.60
59973;DHT22;55298;-36.624;-64.282;2024-03-23T15:16:16;27.60;52.90
59973;DHT22;55298;-36.624;-64.282;2024-03-23T15:18:47;28.40;51.80
59973;DHT22;55298;-36.624;-64.282;2024-03-23T15:21:15;28.80;49.20
59973;DHT22;55298;-36.624;-64.282;2024-03-23T15:23:50;28.70;48.80
59973;DHT22;55298;-36.624;-64.282;2024-03-23T15:26:18;28.30;49.00
59973;DHT22;55298;-36.624;-64.282;2024-03-23T15:28:49;28.20;50.00
59973;DHT22;55298;-36.624;-64.282;2024-03-23T15:31:36;27.50;49.30
59973;DHT22;55298;-36.624;-64.282;2024-03-23T15:34:05;27.00;50.30
59973;DHT22;55298;-36.624;-64.282;2024-03-23T15:36:41;26.50;51.50
59973;DHT22;55298;-36.624;-64.282;2024-03-23T15:39:11;26.10;52.60
59973;DHT22;55298;-36.624;-64.282;2024-03-23T15:41:41;25.80;53.80
59973;DHT22;55298;-36.624;-64.282;2024-03-23T15:44:09;25.70;54.00
59973;DHT22;55298;-36.624;-64.282;2024-03-23T15:46:37;25.80;53.90
59973;DHT22;55298;-36.624;-64.282;2024-03-23T15:49:06;26.00;53.80
59973;DHT22;55298;-36.624;-64.282;2024-03-23T15:51:33;26.20;53.50
59973;DHT22;55298;-36.624;-64.282;2024-03-23T15:54:04;26.50;53.60
59973;DHT22;55298;-36.624;-64.282;2024-03-23T15:56:32;26.70;53.10
59973;DHT22;55298;-36.624;-64.282;2024-03-23T15:59:00;26.70;52.60
59973;DHT22;55298;-36.624;-64.282;2024-03-23T16:01:33;26.70;52.60
59973;DHT22;55298;-36.624;-64.282;2024-03-23T16:04:02;26.50;52.80
59973;DHT22;55298;-36.624;-64.282;2024-03-23T16:06:30;26.60;53.00
59973;DHT22;55298;-36.624;-64.282;2024-03-23T16:08:58;26.70;51.90
59973;DHT22;55298;-36.624;-64.282;2024-03-23T16:11:26;26.70;52.00
59973;DHT22;55298;-36.624;-64.282;2024-03-23T16:13:54;26.60;52.50
59973;DHT22;55298;-36.624;-64.282;2024-03-23T16:16:21;26.50;52.40
59973;DHT22;55298;-36.624;-64.282;2024-03-23T16:18:50;26.60;53.10
59973;DHT22;55298;-36.624;-64.282;2024-03-23T16:21:18;26.80;52.40
59973;DHT22;55298;-36.624;-64.282;2024-03-23T16:23:49;27.00;52.20
59973;DHT22;55298;-36.624;-64.282;2024-03-23T16:26:18;27.10;51.90
59973;DHT22;55298;-36.624;-64.282;2024-03-23T16:28:46;27.10;51.40
59973;DHT22;55298;-36.624;-64.282;2024-03-23T16:31:15;27.00;52.20
59973;DHT22;55298;-36.624;-64.282;2024-03-23T16:33:44;27.00;51.10
59973;DHT22;55298;-36.624;-64.282;2024-03-23T16:36:12;27.00;51.90
59973;DHT22;55298;-36.624;-64.282;2024-03-23T16:38:41;27.10;51.10
59973;DHT22;55298;-36.624;-64.282;2024-03-23T16:41:15;27.10;51.00
59973;DHT22;55298;-36.624;-64.282;2024-03-23T16:43:44;27.20;51.10